C2 — ZCYD3 — position and weather

sailwx.info

Track history (hours):
 
Tides and Currents Weather Stations Pressure Air Temp Water Temp Dewpoint Dewpoint Depression Visibility Wind Speed Wind Dir Waves Ship Positions

C2

Last reported at 2015-Apr-24 21:26 UTC. Time now 2015-May-07 09:40 UTC.
Position N 43°10' E 005°37'.
Warning: this ship's position is 12 days out of date.

Length 79 m; draft 3.4 m.

Type: Pleasure craft. MMSI: 319268000.

Date/timePositionNaut miles runAvg speedWind from/ knotsBaromVisibWave heightAir tempDewpointWater temp
2015-Apr-24 21:26N 43°10' E 005°37'0 0.0
2015-Apr-22 22:09N 43°10' E 005°37'0 0.0
2015-Apr-22 11:17N 43°10' E 005°37'0 0.0
2015-Apr-21 21:29N 43°10' E 005°37'2 0.1
2015-Apr-20 14:18N 43°08' E 005°37'8 7.4
2015-Apr-20 13:15N 43°02' E 005°31'9 8.4
2015-Apr-20 12:12N 42°56' E 005°23'913.2
2015-Apr-20 11:33N 42°49' E 005°15'1513.9
2015-Apr-20 10:29N 42°38' E 005°02'1513.8
2015-Apr-20 09:22N 42°26' E 004°49'1113.7
2015-Apr-20 08:33N 42°17' E 004°39'1813.7
2015-Apr-20 07:14N 42°04' E 004°24'1314.6
2015-Apr-20 06:22N 41°54' E 004°13'6914.3
2015-Apr-20 01:33N 41°01' E 003°14'1414.0
2015-Apr-20 00:33N 40°50' E 003°02'1414.6
2015-Apr-19 23:33N 40°39' E 002°50'1414.5
2015-Apr-19 22:33N 40°28' E 002°38'1414.3
2015-Apr-19 21:33N 40°17' E 002°26'1414.4
2015-Apr-19 20:33N 40°06' E 002°14'1515.0
2015-Apr-19 19:33N 39°55' E 002°01'1514.9
2015-Apr-19 18:33N 39°43' E 001°49'14714.3
2015-Apr-19 08:19N 37°50' W 000°12'1114.0
2015-Apr-19 07:33N 37°42' W 000°21'1414.3
2015-Apr-19 06:33N 37°30' W 000°32'1313.4
2015-Apr-19 05:33N 37°23' W 000°46'22813.4
2015-Apr-18 12:33N 36°06' W 005°13'8 1.0
2015-Apr-18 04:32N 36°07' W 005°22'  
Track history (hours):
 
Tides and Currents Weather Stations Pressure Air Temp Water Temp Dewpoint Dewpoint Depression Visibility Wind Speed Wind Dir Waves Ship Positions

C2

Last reported at 2015-Apr-24 21:26 UTC. Time now 2015-May-07 09:40 UTC.
Position N 43°10' E 005°37'.
Warning: this ship's position is 12 days out of date.

Length 79 m; draft 3.4 m.

Type: Pleasure craft. MMSI: 319268000.

Date/timePositionNaut miles runAvg speedWind from/ knotsBaromVisibWave heightAir tempDewpointWater temp
2015-Apr-24 21:26N 43°10' E 005°37'0 0.0
2015-Apr-22 22:09N 43°10' E 005°37'0 0.0
2015-Apr-22 11:17N 43°10' E 005°37'0 0.0
2015-Apr-21 21:29N 43°10' E 005°37'2 0.1
2015-Apr-20 14:18N 43°08' E 005°37'8 7.4
2015-Apr-20 13:15N 43°02' E 005°31'9 8.4
2015-Apr-20 12:12N 42°56' E 005°23'913.2
2015-Apr-20 11:33N 42°49' E 005°15'1513.9
2015-Apr-20 10:29N 42°38' E 005°02'1513.8
2015-Apr-20 09:22N 42°26' E 004°49'1113.7
2015-Apr-20 08:33N 42°17' E 004°39'1813.7
2015-Apr-20 07:14N 42°04' E 004°24'1314.6
2015-Apr-20 06:22N 41°54' E 004°13'6914.3
2015-Apr-20 01:33N 41°01' E 003°14'1414.0
2015-Apr-20 00:33N 40°50' E 003°02'1414.6
2015-Apr-19 23:33N 40°39' E 002°50'1414.5
2015-Apr-19 22:33N 40°28' E 002°38'1414.3
2015-Apr-19 21:33N 40°17' E 002°26'1414.4
2015-Apr-19 20:33N 40°06' E 002°14'1515.0
2015-Apr-19 19:33N 39°55' E 002°01'1514.9
2015-Apr-19 18:33N 39°43' E 001°49'14714.3
2015-Apr-19 08:19N 37°50' W 000°12'1114.0
2015-Apr-19 07:33N 37°42' W 000°21'1414.3
2015-Apr-19 06:33N 37°30' W 000°32'1313.4
2015-Apr-19 05:33N 37°23' W 000°46'22813.4
2015-Apr-18 12:33N 36°06' W 005°13'8 1.0
2015-Apr-18 04:32N 36°07' W 005°22'  

Dump ship's entire track history